Time;durP1;ratioP1;P1;durP2;ratioP2;P2;SDS_P1;SDS_P2;PMS_P1;PMS_P2;Temp;Humidity;BMP_temperature;BMP_pressure;BME280_temperature;BME280_humidity;BME280_pressure;Samples;Min_cycle;Max_cycle;Signal;HPM_P1;HPM_P2
2022/07/15 00:02:18;;;;;;;;;;;13.20;96.00;;;;;;5070254;28;20387;-55
2022/07/15 00:04:46;;;;;;;;;;;12.90;96.00;;;;;;5079930;28;20261;-56
2022/07/15 00:07:13;;;;;;;;;;;12.90;96.10;;;;;;5072929;28;21487;-57
2022/07/15 00:12:27;;;;;;;;;;;12.90;96.30;;;;;;5083477;28;19935;-56
2022/07/15 00:14:54;;;;;;;;;;;12.90;96.30;;;;;;5056746;28;20307;-55
2022/07/15 00:17:22;;;;;;;;;;;12.90;96.50;;;;;;5074142;28;20393;-58
2022/07/15 00:19:49;;;;;;;;;;;12.90;96.50;;;;;;5080331;28;19925;-56
2022/07/15 00:22:17;;;;;;;;;;;12.90;96.70;;;;;;5085236;28;19931;-57
2022/07/15 00:24:44;;;;;;;;;;;12.90;96.70;;;;;;5075334;28;20299;-56
2022/07/15 00:27:13;;;;;;;;;;;12.80;96.70;;;;;;5084609;28;19939;-58
2022/07/15 00:29:41;;;;;;;;;;;12.80;96.90;;;;;;5091753;28;19928;-56
2022/07/15 00:32:08;;;;;;;;;;;12.80;97.00;;;;;;5089857;28;19924;-55
2022/07/15 00:34:36;;;;;;;;;;;12.70;97.00;;;;;;5081042;28;19931;-55
2022/07/15 00:37:04;;;;;;;;;;;12.70;97.10;;;;;;5071412;28;19931;-55
2022/07/15 00:39:31;;;;;;;;;;;12.60;97.40;;;;;;5087959;28;19924;-55
2022/07/15 00:41:59;;;;;;;;;;;12.60;97.20;;;;;;5091422;28;19931;-55
2022/07/15 00:44:26;;;;;;;;;;;12.60;97.30;;;;;;5089986;28;20511;-55
2022/07/15 00:46:54;;;;;;;;;;;12.50;97.50;;;;;;5080259;28;19935;-55
2022/07/15 00:49:22;;;;;;;;;;;12.50;97.70;;;;;;5082710;28;19924;-54
2022/07/15 00:51:54;;;;;;;;;;;12.40;97.70;;;;;;5089251;28;19924;-54
2022/07/15 00:54:23;;;;;;;;;;;12.40;97.80;;;;;;5088881;28;19924;-54
2022/07/15 00:56:53;;;;;;;;;;;12.30;97.90;;;;;;5080390;28;19935;-56
2022/07/15 00:59:22;;;;;;;;;;;12.20;98.10;;;;;;5085094;28;19924;-56
2022/07/15 01:01:50;;;;;;;;;;;12.20;98.20;;;;;;5085534;28;19932;-56
2022/07/15 01:04:20;;;;;;;;;;;12.20;98.20;;;;;;5070821;28;19936;-56
2022/07/15 01:06:48;;;;;;;;;;;12.10;98.40;;;;;;5068068;28;20398;-55
2022/07/15 01:09:15;;;;;;;;;;;12.10;98.40;;;;;;5083954;28;19924;-55
2022/07/15 01:11:43;;;;;;;;;;;12.10;98.60;;;;;;5088130;28;19924;-53
2022/07/15 01:14:10;;;;;;;;;;;12.00;98.80;;;;;;5089699;28;19928;-55
2022/07/15 01:16:38;;;;;;;;;;;12.00;98.80;;;;;;5091147;28;19939;-55
2022/07/15 01:19:05;;;;;;;;;;;11.90;98.90;;;;;;5079630;28;20403;-54
2022/07/15 01:21:40;;;;;;;;;;;11.90;98.90;;;;;;5079698;28;19931;-54
2022/07/15 01:24:08;;;;;;;;;;;11.80;99.00;;;;;;5087506;28;19951;-53
2022/07/15 01:26:42;;;;;;;;;;;11.80;99.20;;;;;;5069277;28;19925;-54
2022/07/15 01:29:12;;;;;;;;;;;11.80;99.40;;;;;;5081964;28;19928;-54
2022/07/15 01:31:41;;;;;;;;;;;11.70;99.50;;;;;;5077106;28;20513;-55
2022/07/15 01:34:08;;;;;;;;;;;11.70;99.70;;;;;;5079715;28;19928;-55
2022/07/15 01:36:36;;;;;;;;;;;11.60;99.70;;;;;;5072156;28;20287;-53
2022/07/15 01:39:05;;;;;;;;;;;11.60;99.90;;;;;;5087058;28;19924;-55
2022/07/15 01:41:52;;;;;;;;;;;11.60;99.90;;;;;;5088355;28;20379;-54
2022/07/15 01:44:20;;;;;;;;;;;11.60;99.90;;;;;;5075753;28;19932;-54
2022/07/15 01:46:47;;;;;;;;;;;11.60;99.90;;;;;;5084379;28;19924;-55
2022/07/15 01:49:25;;;;;;;;;;;11.60;99.90;;;;;;5071815;28;19924;-54
2022/07/15 01:52:13;;;;;;;;;;;11.50;99.90;;;;;;5086012;28;19932;-53
2022/07/15 01:54:44;;;;;;;;;;;11.60;99.90;;;;;;5081331;28;19939;-54
2022/07/15 01:57:11;;;;;;;;;;;11.60;99.90;;;;;;5073205;28;19924;-54
2022/07/15 02:00:09;;;;;;;;;;;11.70;99.90;;;;;;5069351;28;19925;-54
2022/07/15 02:02:43;;;;;;;;;;;11.70;99.90;;;;;;5074847;28;19932;-55
2022/07/15 02:05:13;;;;;;;;;;;11.70;99.90;;;;;;5071601;28;19933;-55
2022/07/15 02:07:41;;;;;;;;;;;11.80;99.90;;;;;;5071214;28;20391;-54
2022/07/15 02:10:13;;;;;;;;;;;11.90;99.90;;;;;;5071858;28;19928;-55
2022/07/15 02:12:45;;;;;;;;;;;11.90;99.90;;;;;;5080881;28;19946;-54
2022/07/15 02:15:16;;;;;;;;;;;12.10;99.90;;;;;;5091894;28;19947;-54
2022/07/15 02:17:49;;;;;;;;;;;12.10;99.90;;;;;;5082428;28;19931;-53
2022/07/15 02:20:17;;;;;;;;;;;12.20;99.90;;;;;;5072712;28;20307;-54
2022/07/15 02:22:46;;;;;;;;;;;12.20;99.90;;;;;;5083156;28;20384;-54
2022/07/15 02:25:13;;;;;;;;;;;12.20;99.90;;;;;;5091486;28;20430;-54
2022/07/15 02:27:44;;;;;;;;;;;12.30;99.90;;;;;;5091498;28;19924;-54
2022/07/15 02:30:12;;;;;;;;;;;12.30;99.90;;;;;;5091557;28;20299;-54
2022/07/15 02:32:40;;;;;;;;;;;12.30;99.90;;;;;;5081135;28;19928;-53
2022/07/15 02:35:08;;;;;;;;;;;12.30;99.90;;;;;;5070158;28;19936;-54
2022/07/15 02:37:36;;;;;;;;;;;12.40;99.90;;;;;;5091356;28;19931;-54
2022/07/15 02:40:03;;;;;;;;;;;12.40;99.90;;;;;;5092487;28;19931;-54
2022/07/15 02:42:32;;;;;;;;;;;12.50;99.90;;;;;;5081941;28;19924;-55
2022/07/15 02:45:03;;;;;;;;;;;12.50;99.90;;;;;;5091331;28;19994;-55
2022/07/15 02:47:31;;;;;;;;;;;12.50;99.90;;;;;;5077302;28;20326;-54
2022/07/15 02:49:58;;;;;;;;;;;12.50;99.90;;;;;;5083286;28;19928;-55
2022/07/15 02:52:28;;;;;;;;;;;12.50;99.90;;;;;;5057767;28;20049;-55
2022/07/15 02:54:56;;;;;;;;;;;12.60;99.90;;;;;;5071000;28;19924;-54
2022/07/15 02:57:24;;;;;;;;;;;12.60;99.90;;;;;;5049932;28;19928;-53
2022/07/15 02:59:51;;;;;;;;;;;12.60;99.90;;;;;;5071893;28;19931;-54
2022/07/15 03:02:20;;;;;;;;;;;12.60;99.90;;;;;;5092138;28;20303;-54
2022/07/15 03:04:47;;;;;;;;;;;12.60;99.90;;;;;;5081052;28;20271;-54
2022/07/15 03:07:15;;;;;;;;;;;12.60;99.90;;;;;;5083833;28;19931;-53
2022/07/15 03:09:43;;;;;;;;;;;12.60;99.90;;;;;;5081901;28;19931;-54
2022/07/15 03:12:12;;;;;;;;;;;12.60;99.90;;;;;;5090004;28;20391;-54
2022/07/15 03:14:40;;;;;;;;;;;12.60;99.90;;;;;;5090820;28;20291;-54
2022/07/15 03:17:08;;;;;;;;;;;12.60;99.90;;;;;;5079724;28;19998;-53
2022/07/15 03:19:36;;;;;;;;;;;12.60;99.90;;;;;;5091018;28;19924;-53
2022/07/15 03:22:03;;;;;;;;;;;12.60;99.90;;;;;;5090153;28;20303;-55
2022/07/15 03:24:35;;;;;;;;;;;12.60;99.90;;;;;;5090053;28;19928;-54
2022/07/15 03:27:02;;;;;;;;;;;12.60;99.90;;;;;;5058946;28;19928;-54
2022/07/15 03:29:31;;;;;;;;;;;12.60;99.90;;;;;;5070450;28;19925;-55
2022/07/15 03:31:59;;;;;;;;;;;12.60;99.90;;;;;;5088311;28;19939;-55
2022/07/15 03:34:27;;;;;;;;;;;12.60;99.90;;;;;;5090724;28;20383;-55
2022/07/15 03:36:54;;;;;;;;;;;12.60;99.90;;;;;;5089043;28;19931;-55
2022/07/15 03:39:22;;;;;;;;;;;12.60;99.90;;;;;;5080821;28;19931;-54
2022/07/15 03:41:49;;;;;;;;;;;12.60;99.90;;;;;;5073468;28;19928;-54
2022/07/15 03:44:17;;;;;;;;;;;12.50;99.90;;;;;;5089756;28;19924;-54
2022/07/15 03:46:46;;;;;;;;;;;12.50;99.90;;;;;;5091135;28;19924;-54
2022/07/15 03:49:15;;;;;;;;;;;12.40;99.90;;;;;;5075136;28;20296;-53
2022/07/15 03:51:43;;;;;;;;;;;12.30;99.90;;;;;;5084700;28;19924;-54
2022/07/15 03:54:12;;;;;;;;;;;12.30;99.90;;;;;;5078552;28;20405;-54
2022/07/15 03:56:47;;;;;;;;;;;12.20;99.90;;;;;;5089297;28;19931;-53
2022/07/15 03:59:15;;;;;;;;;;;12.20;99.90;;;;;;5085153;28;19924;-53
2022/07/15 04:01:43;;;;;;;;;;;12.20;99.90;;;;;;5075497;28;20385;-53
2022/07/15 04:04:10;;;;;;;;;;;12.10;99.90;;;;;;5075265;28;19947;-54
2022/07/15 04:06:38;;;;;;;;;;;12.10;99.90;;;;;;5076464;28;19940;-55
2022/07/15 04:09:06;;;;;;;;;;;12.00;99.90;;;;;;5088503;28;19924;-55
2022/07/15 04:11:33;;;;;;;;;;;12.00;99.90;;;;;;5081227;28;19939;-57
2022/07/15 04:14:01;;;;;;;;;;;12.00;99.90;;;;;;5094429;28;19931;-55
2022/07/15 04:16:29;;;;;;;;;;;11.90;99.90;;;;;;5095392;28;19924;-56
2022/07/15 04:19:05;;;;;;;;;;;11.90;99.90;;;;;;5090281;28;20322;-55
2022/07/15 04:21:34;;;;;;;;;;;11.80;99.90;;;;;;5075281;28;19925;-55
2022/07/15 04:24:03;;;;;;;;;;;11.80;99.90;;;;;;5073165;28;19925;-55
2022/07/15 04:26:31;;;;;;;;;;;12.30;99.90;;;;;;5087011;28;19931;-56
2022/07/15 04:28:59;;;;;;;;;;;11.80;99.90;;;;;;5093756;28;19931;-55
2022/07/15 04:31:26;;;;;;;;;;;11.70;99.90;;;;;;5089584;28;19933;-55
2022/07/15 04:34:04;;;;;;;;;;;11.70;99.90;;;;;;5073178;28;20432;-56
2022/07/15 04:36:32;;;;;;;;;;;11.70;99.90;;;;;;5073646;28;19931;-56
2022/07/15 04:39:00;;;;;;;;;;;11.70;99.90;;;;;;5084108;28;19924;-55
2022/07/15 04:41:29;;;;;;;;;;;11.70;99.90;;;;;;5077356;28;19924;-54
2022/07/15 04:43:56;;;;;;;;;;;11.70;99.90;;;;;;5086430;28;19930;-54
2022/07/15 04:46:24;;;;;;;;;;;11.60;99.90;;;;;;5083837;28;19928;-55
2022/07/15 04:51:48;;;;;;;;;;;11.60;99.90;;;;;;5070875;28;19924;-55
2022/07/15 04:54:16;;;;;;;;;;;11.70;99.90;;;;;;5070802;28;20358;-54
2022/07/15 04:56:46;;;;;;;;;;;11.60;99.90;;;;;;5079310;28;20303;-55
2022/07/15 04:59:13;;;;;;;;;;;11.60;99.90;;;;;;5088353;28;19924;-55
2022/07/15 05:01:40;;;;;;;;;;;11.60;99.90;;;;;;5088068;28;19924;-56
2022/07/15 05:04:12;;;;;;;;;;;11.60;99.90;;;;;;5064731;28;19925;-55
2022/07/15 05:06:40;;;;;;;;;;;11.60;99.90;;;;;;5069004;28;19928;-55
2022/07/15 05:09:07;;;;;;;;;;;11.70;99.90;;;;;;5088514;28;19936;-55
2022/07/15 05:11:35;;;;;;;;;;;11.70;99.90;;;;;;5084996;28;19931;-55
2022/07/15 05:14:03;;;;;;;;;;;11.70;99.90;;;;;;5102298;28;19931;-56
2022/07/15 05:16:30;;;;;;;;;;;11.80;99.90;;;;;;5085985;28;20392;-56
2022/07/15 05:19:00;;;;;;;;;;;11.80;99.90;;;;;;5090560;28;19958;-57
2022/07/15 05:21:28;;;;;;;;;;;11.80;99.90;;;;;;5074530;28;19935;-56
2022/07/15 05:23:56;;;;;;;;;;;11.90;99.90;;;;;;5081449;28;19933;-56
2022/07/15 05:26:43;;;;;;;;;;;11.90;99.90;;;;;;5083278;28;19929;-55
2022/07/15 05:29:13;;;;;;;;;;;12.00;99.90;;;;;;5079909;28;19924;-56
2022/07/15 05:31:41;;;;;;;;;;;12.10;99.90;;;;;;5066033;28;20398;-56
2022/07/15 05:34:10;;;;;;;;;;;12.20;99.90;;;;;;5083382;28;20521;-56
2022/07/15 05:36:37;;;;;;;;;;;12.30;99.90;;;;;;5088718;28;20402;-57
2022/07/15 05:39:06;;;;;;;;;;;12.40;99.90;;;;;;5088994;28;19943;-56
2022/07/15 05:41:35;;;;;;;;;;;12.60;99.90;;;;;;5088127;28;19928;-56
2022/07/15 05:44:03;;;;;;;;;;;12.70;99.90;;;;;;5085255;28;19924;-56
2022/07/15 05:46:36;;;;;;;;;;;12.90;99.90;;;;;;5087263;28;19931;-56
2022/07/15 05:49:04;;;;;;;;;;;13.10;99.90;;;;;;5073930;28;20298;-55
2022/07/15 05:51:33;;;;;;;;;;;13.20;99.90;;;;;;5082778;28;20367;-56
2022/07/15 05:54:01;;;;;;;;;;;13.30;99.90;;;;;;5083735;28;19928;-56
2022/07/15 05:56:29;;;;;;;;;;;13.50;99.90;;;;;;5072888;28;19924;-55
2022/07/15 05:58:56;;;;;;;;;;;13.60;99.90;;;;;;5089298;28;19931;-55
2022/07/15 06:01:29;;;;;;;;;;;13.70;99.90;;;;;;5082168;28;19924;-55
2022/07/15 06:03:57;;;;;;;;;;;13.80;99.90;;;;;;5081235;28;19925;-55
2022/07/15 06:06:25;;;;;;;;;;;13.90;99.90;;;;;;5080412;28;19928;-55
2022/07/15 06:08:53;;;;;;;;;;;14.00;99.90;;;;;;5086578;28;19931;-55
2022/07/15 06:11:22;;;;;;;;;;;13.90;99.90;;;;;;5069535;28;19928;-55
2022/07/15 06:13:51;;;;;;;;;;;14.00;99.90;;;;;;5084202;28;19939;-55
2022/07/15 06:16:18;;;;;;;;;;;14.00;99.90;;;;;;5076259;28;19924;-55
2022/07/15 06:18:46;;;;;;;;;;;14.00;99.90;;;;;;5076970;28;19932;-55
2022/07/15 06:21:14;;;;;;;;;;;14.00;99.90;;;;;;5071725;28;19935;-55
2022/07/15 06:23:44;;;;;;;;;;;14.00;99.90;;;;;;5081326;28;19924;-56
2022/07/15 06:26:11;;;;;;;;;;;14.00;99.90;;;;;;5082769;28;20641;-55
2022/07/15 06:28:41;;;;;;;;;;;14.10;99.90;;;;;;5084608;28;20554;-55
2022/07/15 06:31:20;;;;;;;;;;;14.20;99.90;;;;;;5078594;28;20390;-55
2022/07/15 06:33:48;;;;;;;;;;;14.10;99.90;;;;;;5075255;28;19924;-55
2022/07/15 06:36:15;;;;;;;;;;;14.20;99.90;;;;;;5077048;28;19924;-54
2022/07/15 06:38:45;;;;;;;;;;;14.30;99.90;;;;;;5076353;28;19943;-55
2022/07/15 06:41:12;;;;;;;;;;;14.30;99.90;;;;;;5069765;28;19928;-56
2022/07/15 06:43:40;;;;;;;;;;;14.40;99.90;;;;;;5075794;28;19939;-57
2022/07/15 06:46:10;;;;;;;;;;;14.50;99.90;;;;;;5074588;28;19928;-54
2022/07/15 06:48:41;;;;;;;;;;;14.50;99.90;;;;;;5073322;28;20330;-58
2022/07/15 06:51:09;;;;;;;;;;;14.60;99.90;;;;;;5069972;28;19939;-53
2022/07/15 06:53:37;;;;;;;;;;;14.70;99.90;;;;;;5072726;28;19932;-59
2022/07/15 06:56:05;;;;;;;;;;;14.70;99.90;;;;;;5078206;28;20391;-59
2022/07/15 06:58:33;;;;;;;;;;;14.80;99.90;;;;;;5077448;28;19924;-58
2022/07/15 07:01:01;;;;;;;;;;;14.80;99.90;;;;;;5088443;28;19928;-59
2022/07/15 07:03:28;;;;;;;;;;;14.80;99.90;;;;;;5079098;28;20429;-59
2022/07/15 07:06:16;;;;;;;;;;;14.80;99.90;;;;;;5064951;28;19939;-57
2022/07/15 07:08:46;;;;;;;;;;;14.80;99.90;;;;;;5076629;28;19924;-58
2022/07/15 07:11:14;;;;;;;;;;;14.80;99.90;;;;;;5068609;28;19924;-59
2022/07/15 07:13:42;;;;;;;;;;;14.80;99.90;;;;;;5082602;28;20392;-57
2022/07/15 07:16:09;;;;;;;;;;;14.90;99.90;;;;;;5068731;28;19931;-59
2022/07/15 07:18:37;;;;;;;;;;;14.90;99.90;;;;;;5071553;28;19935;-59
2022/07/15 07:21:05;;;;;;;;;;;14.90;99.90;;;;;;5077268;28;19924;-59
2022/07/15 07:23:34;;;;;;;;;;;15.00;99.90;;;;;;5072213;28;19936;-59
2022/07/15 07:26:03;;;;;;;;;;;15.00;99.90;;;;;;5067465;28;20014;-58
2022/07/15 07:28:30;;;;;;;;;;;15.10;99.90;;;;;;5087340;28;20392;-60
2022/07/15 07:30:58;;;;;;;;;;;15.20;99.90;;;;;;5085064;28;19930;-59
2022/07/15 07:33:25;;;;;;;;;;;15.30;99.90;;;;;;5077843;28;19932;-59
2022/07/15 07:35:53;;;;;;;;;;;15.40;99.90;;;;;;5073618;28;19929;-58
2022/07/15 07:38:21;;;;;;;;;;;15.50;99.90;;;;;;5078648;28;19924;-58
2022/07/15 07:40:48;;;;;;;;;;;15.60;99.90;;;;;;5080560;28;19928;-59
2022/07/15 07:43:17;;;;;;;;;;;15.60;99.90;;;;;;5085487;28;19924;-58
2022/07/15 07:45:48;;;;;;;;;;;15.70;99.90;;;;;;5068499;28;20150;-55
2022/07/15 07:48:16;;;;;;;;;;;15.80;99.90;;;;;;5076231;28;19924;-59
2022/07/15 07:50:44;;;;;;;;;;;15.90;99.90;;;;;;5075133;28;19924;-60
2022/07/15 07:53:13;;;;;;;;;;;16.00;99.90;;;;;;5088343;28;19924;-60
2022/07/15 07:55:41;;;;;;;;;;;16.00;99.90;;;;;;5077233;28;19928;-61
2022/07/15 07:58:08;;;;;;;;;;;16.10;99.90;;;;;;5074057;28;19931;-59
2022/07/15 08:00:36;;;;;;;;;;;16.10;99.90;;;;;;5078780;28;19924;-60
2022/07/15 08:03:04;;;;;;;;;;;16.10;99.90;;;;;;5086229;28;19931;-60
2022/07/15 08:05:31;;;;;;;;;;;16.30;99.90;;;;;;5078254;28;19932;-60
2022/07/15 08:08:28;;;;;;;;;;;16.30;99.70;;;;;;5070402;28;19928;-61
2022/07/15 08:10:56;;;;;;;;;;;16.40;99.50;;;;;;5059269;28;20364;-61
2022/07/15 08:13:24;;;;;;;;;;;16.40;99.20;;;;;;5086753;28;19935;-61
2022/07/15 08:15:53;;;;;;;;;;;16.40;99.30;;;;;;5074451;28;19924;-59
2022/07/15 08:18:28;;;;;;;;;;;16.40;99.30;;;;;;5078964;28;19924;-60
2022/07/15 08:20:55;;;;;;;;;;;16.40;99.30;;;;;;5078559;28;19935;-59
2022/07/15 08:23:23;;;;;;;;;;;16.40;99.30;;;;;;5075652;28;19931;-60
2022/07/15 08:25:51;;;;;;;;;;;16.50;99.40;;;;;;5076289;28;19924;-59
2022/07/15 08:28:19;;;;;;;;;;;16.60;99.60;;;;;;5068342;28;19928;-59
2022/07/15 08:30:46;;;;;;;;;;;16.80;99.70;;;;;;5066541;28;20291;-62
2022/07/15 08:33:14;;;;;;;;;;;16.90;99.20;;;;;;5068953;28;19924;-59
2022/07/15 08:35:43;;;;;;;;;;;17.10;99.00;;;;;;5077126;28;19928;-59
2022/07/15 08:38:12;;;;;;;;;;;17.20;99.00;;;;;;5080603;28;20669;-59
2022/07/15 08:40:40;;;;;;;;;;;17.30;98.40;;;;;;5083450;28;20367;-58
2022/07/15 08:43:08;;;;;;;;;;;17.40;98.00;;;;;;5081842;28;19935;-61
2022/07/15 08:45:37;;;;;;;;;;;17.40;97.90;;;;;;5090642;28;19924;-61
2022/07/15 08:48:05;;;;;;;;;;;17.40;97.90;;;;;;5091478;28;19988;-62
2022/07/15 08:50:33;;;;;;;;;;;17.40;98.00;;;;;;5090395;28;19924;-61
2022/07/15 08:53:00;;;;;;;;;;;17.50;98.00;;;;;;5086629;28;19939;-58
2022/07/15 08:55:28;;;;;;;;;;;17.50;98.00;;;;;;5072028;28;19924;-59
2022/07/15 08:57:56;;;;;;;;;;;17.50;98.10;;;;;;5077595;28;20300;-59
2022/07/15 09:00:28;;;;;;;;;;;17.50;98.20;;;;;;5071338;28;19924;-60
2022/07/15 09:02:56;;;;;;;;;;;17.60;98.30;;;;;;5078267;28;19924;-55
2022/07/15 09:05:26;;;;;;;;;;;17.60;98.00;;;;;;5091434;28;19931;-59
2022/07/15 09:07:56;;;;;;;;;;;17.70;98.00;;;;;;5081397;28;20486;-58
2022/07/15 09:10:25;;;;;;;;;;;17.80;97.90;;;;;;5070645;28;19931;-58
2022/07/15 09:12:53;;;;;;;;;;;17.90;97.90;;;;;;5076490;28;19928;-58
2022/07/15 09:15:31;;;;;;;;;;;18.10;97.60;;;;;;5081087;28;19924;-59
2022/07/15 09:18:06;;;;;;;;;;;18.20;97.40;;;;;;5086797;28;19935;-59
2022/07/15 09:20:35;;;;;;;;;;;18.50;97.60;;;;;;5091338;28;20307;-60
2022/07/15 09:23:03;;;;;;;;;;;18.70;97.10;;;;;;5076738;28;19931;-59
2022/07/15 09:25:35;;;;;;;;;;;18.90;96.40;;;;;;5069406;28;20406;-60
2022/07/15 09:28:03;;;;;;;;;;;19.10;96.20;;;;;;5084978;28;19925;-59
2022/07/15 09:36:05;;;;;;;;;;;19.50;95.70;;;;;;5090803;28;19928;-60
2022/07/15 09:38:34;;;;;;;;;;;19.60;95.20;;;;;;5087139;28;19931;-62
2022/07/15 09:41:02;;;;;;;;;;;19.70;95.00;;;;;;5074467;28;19925;-63
2022/07/15 09:43:29;;;;;;;;;;;19.80;95.00;;;;;;5081107;28;19931;-61
2022/07/15 09:45:59;;;;;;;;;;;19.80;94.20;;;;;;5089535;28;20078;-61
2022/07/15 09:48:31;;;;;;;;;;;19.70;94.20;;;;;;5090477;28;20302;-59
2022/07/15 09:50:59;;;;;;;;;;;19.60;94.30;;;;;;5076012;28;19924;-61
2022/07/15 09:53:27;;;;;;;;;;;19.60;94.50;;;;;;5080003;28;19924;-59
2022/07/15 09:55:55;;;;;;;;;;;19.60;94.60;;;;;;5071953;28;19928;-60
2022/07/15 09:58:23;;;;;;;;;;;19.80;94.80;;;;;;5073636;28;19924;-58
2022/07/15 10:00:52;;;;;;;;;;;19.90;94.70;;;;;;5077358;28;20621;-60
2022/07/15 10:03:23;;;;;;;;;;;20.00;94.20;;;;;;5075768;28;20376;-57
2022/07/15 10:05:54;;;;;;;;;;;20.10;93.90;;;;;;5085515;28;19938;-59
2022/07/15 10:08:21;;;;;;;;;;;20.20;93.90;;;;;;5087386;28;19931;-59
2022/07/15 10:10:51;;;;;;;;;;;20.30;93.80;;;;;;5080094;28;19928;-59
2022/07/15 10:13:57;;;;;;;;;;;20.40;93.50;;;;;;5073226;28;19924;-59
2022/07/15 10:16:27;;;;;;;;;;;20.60;93.40;;;;;;5044134;28;20469;-54
2022/07/15 10:19:14;;;;;;;;;;;20.60;93.30;;;;;;5046579;28;19932;-57
2022/07/15 10:22:00;;;;;;;;;;;20.70;93.20;;;;;;5060723;28;19925;-60
2022/07/15 10:24:40;;;;;;;;;;;20.80;93.30;;;;;;5073887;28;20307;-58
2022/07/15 10:27:32;;;;;;;;;;;20.90;92.90;;;;;;5068015;28;19924;-59
2022/07/15 10:30:03;;;;;;;;;;;21.00;93.00;;;;;;5073851;28;19924;-60
2022/07/15 10:32:51;;;;;;;;;;;21.20;92.70;;;;;;5078700;28;19931;-60
2022/07/15 10:35:41;;;;;;;;;;;21.20;92.10;;;;;;5073877;28;20388;-59
2022/07/15 10:38:18;;;;;;;;;;;21.20;91.80;;;;;;5079787;28;19928;-60
2022/07/15 10:41:05;;;;;;;;;;;21.00;92.20;;;;;;5075061;28;19931;-59
2022/07/15 10:43:40;;;;;;;;;;;21.10;92.30;;;;;;5082100;28;19931;-59
2022/07/15 10:46:12;;;;;;;;;;;21.00;92.50;;;;;;5066600;28;19932;-59
2022/07/15 10:48:39;;;;;;;;;;;20.90;92.70;;;;;;5076228;28;19932;-59
2022/07/15 10:51:07;;;;;;;;;;;20.80;92.60;;;;;;5067805;28;19924;-56
2022/07/15 10:53:45;;;;;;;;;;;20.80;93.00;;;;;;5070612;28;19932;-58
2022/07/15 10:56:30;;;;;;;;;;;21.00;93.30;;;;;;5082533;28;20302;-59
2022/07/15 10:59:19;;;;;;;;;;;21.20;92.70;;;;;;5083753;28;19924;-60
2022/07/15 11:01:49;;;;;;;;;;;21.50;92.30;;;;;;5061884;28;19925;-58
2022/07/15 11:04:21;;;;;;;;;;;21.60;92.10;;;;;;5069977;28;19932;-58
2022/07/15 11:09:51;;;;;;;;;;;21.50;91.90;;;;;;5078043;28;19928;-59
2022/07/15 11:12:23;;;;;;;;;;;21.30;92.10;;;;;;5071020;28;20405;-58
2022/07/15 11:14:52;;;;;;;;;;;21.10;92.20;;;;;;5077106;28;20107;-58
2022/07/15 11:17:38;;;;;;;;;;;20.90;92.30;;;;;;5080029;28;20308;-59
2022/07/15 11:20:17;;;;;;;;;;;20.70;92.50;;;;;;5077028;28;19924;-57
2022/07/15 11:22:47;;;;;;;;;;;20.50;92.80;;;;;;5078811;28;19951;-57
2022/07/15 11:25:18;;;;;;;;;;;20.30;93.20;;;;;;5080139;28;19924;-58
2022/07/15 11:27:54;;;;;;;;;;;20.30;93.30;;;;;;5084107;28;20371;-55
2022/07/15 11:30:22;;;;;;;;;;;20.30;93.50;;;;;;5072909;28;19924;-58
2022/07/15 11:32:54;;;;;;;;;;;20.40;93.40;;;;;;5076234;28;20003;-55
2022/07/15 11:35:21;;;;;;;;;;;20.60;93.10;;;;;;5063263;28;19935;-55
2022/07/15 11:37:56;;;;;;;;;;;20.80;92.80;;;;;;5087717;28;20122;-54
2022/07/15 11:45:58;;;;;;;;;;;21.20;92.70;;;;;;5085170;28;19932;-58
2022/07/15 11:48:26;;;;;;;;;;;21.60;92.90;;;;;;5080517;28;19928;-61
2022/07/15 11:50:56;;;;;;;;;;;21.80;91.50;;;;;;5072389;28;19924;-60
2022/07/15 11:53:24;;;;;;;;;;;21.90;90.90;;;;;;5081019;28;19931;-58
2022/07/15 11:55:56;;;;;;;;;;;21.90;90.90;;;;;;5072646;28;20302;-57
2022/07/15 11:58:32;;;;;;;;;;;21.80;91.00;;;;;;5080315;28;19931;-57
2022/07/15 12:01:01;;;;;;;;;;;21.70;91.40;;;;;;5084624;28;19935;-59
2022/07/15 12:03:48;;;;;;;;;;;21.80;91.70;;;;;;5076164;28;20423;-58
2022/07/15 12:06:16;;;;;;;;;;;21.90;91.90;;;;;;5074461;28;19936;-58
2022/07/15 12:08:48;;;;;;;;;;;21.90;91.30;;;;;;5078349;28;19924;-60
2022/07/15 12:11:28;;;;;;;;;;;21.80;91.10;;;;;;5080856;28;19935;-58
2022/07/15 12:14:00;;;;;;;;;;;21.70;91.30;;;;;;5082439;28;19928;-60
2022/07/15 12:16:30;;;;;;;;;;;21.70;91.50;;;;;;5072431;28;20103;-59
2022/07/15 12:19:00;;;;;;;;;;;21.60;91.50;;;;;;5076161;28;19932;-58
2022/07/15 12:21:28;;;;;;;;;;;21.60;91.70;;;;;;5078642;28;19951;-60
2022/07/15 12:24:01;;;;;;;;;;;21.80;92.10;;;;;;5089038;28;19957;-61
2022/07/15 12:26:29;;;;;;;;;;;21.90;91.20;;;;;;5088918;28;19928;-59
2022/07/15 12:28:58;;;;;;;;;;;22.00;91.30;;;;;;5091611;28;20410;-60
2022/07/15 12:31:30;;;;;;;;;;;22.10;91.30;;;;;;5073250;28;20134;-62
2022/07/15 12:33:59;;;;;;;;;;;22.00;91.10;;;;;;5077739;28;19924;-61
2022/07/15 12:36:28;;;;;;;;;;;22.00;91.00;;;;;;5071665;28;20394;-61
2022/07/15 12:39:06;;;;;;;;;;;21.90;91.00;;;;;;5085457;28;20396;-62
2022/07/15 12:41:34;;;;;;;;;;;21.70;91.00;;;;;;5091707;28;19931;-61
2022/07/15 12:44:02;;;;;;;;;;;21.60;91.40;;;;;;5075137;28;19924;-59
2022/07/15 12:46:50;;;;;;;;;;;21.60;91.40;;;;;;5071475;28;19940;-57
2022/07/15 12:49:37;;;;;;;;;;;22.10;92.60;;;;;;5076502;28;19932;-60
2022/07/15 12:52:31;;;;;;;;;;;22.60;91.10;;;;;;5069968;28;19924;-60
2022/07/15 12:55:11;;;;;;;;;;;22.80;90.10;;;;;;5075170;28;19924;-59
2022/07/15 12:57:39;;;;;;;;;;;22.80;89.00;;;;;;5078859;28;20426;-59
2022/07/15 13:00:10;;;;;;;;;;;23.00;90.00;;;;;;5081535;28;20254;-58
2022/07/15 13:02:55;;;;;;;;;;;23.30;88.90;;;;;;5077908;28;19944;-59
2022/07/15 13:05:23;;;;;;;;;;;23.30;86.80;;;;;;5069944;28;19924;-57
2022/07/15 13:07:50;;;;;;;;;;;23.10;86.20;;;;;;5078694;28;19924;-55
2022/07/15 13:10:18;;;;;;;;;;;23.00;86.90;;;;;;5078141;28;19932;-55
2022/07/15 13:12:46;;;;;;;;;;;22.70;86.90;;;;;;5082749;28;19939;-58
2022/07/15 13:15:13;;;;;;;;;;;22.40;87.30;;;;;;5080787;28;19939;-60
2022/07/15 13:17:47;;;;;;;;;;;22.10;88.30;;;;;;5081491;28;20410;-60
2022/07/15 13:20:14;;;;;;;;;;;21.90;89.60;;;;;;5082311;28;20268;-59
2022/07/15 13:22:42;;;;;;;;;;;21.80;90.00;;;;;;5078371;28;19928;-59
2022/07/15 13:25:10;;;;;;;;;;;21.70;90.00;;;;;;5073441;28;19932;-59
2022/07/15 13:27:37;;;;;;;;;;;21.80;90.40;;;;;;5081092;28;19925;-59
2022/07/15 13:30:05;;;;;;;;;;;21.90;90.50;;;;;;5080887;28;20306;-59
2022/07/15 13:32:33;;;;;;;;;;;22.10;90.40;;;;;;5073472;28;20214;-61
2022/07/15 13:35:00;;;;;;;;;;;22.50;90.50;;;;;;5081018;28;19925;-60
2022/07/15 13:37:27;;;;;;;;;;;22.80;89.20;;;;;;5072220;28;20258;-59
2022/07/15 13:39:55;;;;;;;;;;;23.00;89.10;;;;;;5079270;28;19932;-60
2022/07/15 13:42:24;;;;;;;;;;;23.00;87.50;;;;;;5077960;28;19924;-56
2022/07/15 13:44:52;;;;;;;;;;;22.90;87.40;;;;;;5068997;28;20299;-54
2022/07/15 13:47:23;;;;;;;;;;;22.80;87.30;;;;;;5084505;28;19939;-56
2022/07/15 13:52:41;;;;;;;;;;;22.70;88.60;;;;;;5073048;28;20367;-54
2022/07/15 13:55:09;;;;;;;;;;;22.80;88.80;;;;;;5081840;28;19947;-55
2022/07/15 13:57:37;;;;;;;;;;;22.80;88.00;;;;;;5076310;28;19935;-55
2022/07/15 14:00:06;;;;;;;;;;;22.60;88.50;;;;;;5098781;28;19924;-54
2022/07/15 14:02:33;;;;;;;;;;;22.50;89.80;;;;;;5077370;28;19939;-55
2022/07/15 14:05:01;;;;;;;;;;;22.30;90.10;;;;;;5088886;28;19930;-56
2022/07/15 14:07:28;;;;;;;;;;;22.00;90.70;;;;;;5072372;28;20332;-55
2022/07/15 14:09:56;;;;;;;;;;;22.60;90.20;;;;;;5101246;28;20384;-59
2022/07/15 14:12:24;;;;;;;;;;;23.20;91.80;;;;;;5086105;28;20300;-60
2022/07/15 14:14:51;;;;;;;;;;;24.10;90.40;;;;;;5110037;28;19923;-60
2022/07/15 14:17:19;;;;;;;;;;;24.90;88.40;;;;;;5081691;28;19924;-60
2022/07/15 14:19:46;;;;;;;;;;;25.30;84.40;;;;;;5074174;28;19929;-60
2022/07/15 14:22:14;;;;;;;;;;;25.20;83.50;;;;;;5071918;28;19928;-59
2022/07/15 14:24:42;;;;;;;;;;;25.10;84.40;;;;;;5086573;28;19924;-60
2022/07/15 14:27:10;;;;;;;;;;;25.30;84.90;;;;;;5082645;28;20176;-59
2022/07/15 14:29:37;;;;;;;;;;;25.60;84.20;;;;;;5081872;28;20387;-59
2022/07/15 14:32:05;;;;;;;;;;;26.00;84.20;;;;;;5069619;28;20299;-57
2022/07/15 14:34:32;;;;;;;;;;;26.30;82.10;;;;;;5071322;28;19925;-61
2022/07/15 14:37:00;;;;;;;;;;;26.30;80.30;;;;;;5074274;28;19931;-62
2022/07/15 14:39:48;;;;;;;;;;;26.10;80.80;;;;;;5073209;28;19924;-62
2022/07/15 14:42:15;;;;;;;;;;;25.80;80.50;;;;;;5084318;28;19924;-60
2022/07/15 14:44:43;;;;;;;;;;;25.50;81.90;;;;;;5089453;28;20174;-60
2022/07/15 14:47:10;;;;;;;;;;;25.20;82.10;;;;;;5073072;28;19928;-61
2022/07/15 14:49:38;;;;;;;;;;;24.80;82.50;;;;;;5072400;28;19924;-61
2022/07/15 14:52:05;;;;;;;;;;;24.50;83.00;;;;;;5066627;28;19928;-60
2022/07/15 14:54:33;;;;;;;;;;;24.30;83.90;;;;;;5080944;28;19949;-60
2022/07/15 14:57:00;;;;;;;;;;;24.20;84.80;;;;;;5070369;28;20307;-60